sensor_id;sensor_type;location;lat;lon;timestamp;pressure;altitude;pressure_sealevel;temperature;humidity
18652;BME280;9455;54.302;10.124;2022-10-03T00:01:55;101910.84;;;10.54;100.00
18652;BME280;9455;54.302;10.124;2022-10-03T00:04:35;101905.72;;;10.51;100.00
18652;BME280;9455;54.302;10.124;2022-10-03T00:07:14;101918.94;;;10.53;100.00
18652;BME280;9455;54.302;10.124;2022-10-03T00:09:56;101921.72;;;10.51;100.00
18652;BME280;9455;54.302;10.124;2022-10-03T00:12:44;101925.56;;;10.47;100.00
18652;BME280;9455;54.302;10.124;2022-10-03T00:15:17;101925.75;;;10.44;100.00
18652;BME280;9455;54.302;10.124;2022-10-03T00:17:55;101930.28;;;10.44;100.00
18652;BME280;9455;54.302;10.124;2022-10-03T00:20:45;101929.19;;;10.46;100.00
18652;BME280;9455;54.302;10.124;2022-10-03T00:23:19;101935.34;;;10.34;100.00
18652;BME280;9455;54.302;10.124;2022-10-03T00:25:53;101931.53;;;10.38;100.00
18652;BME280;9455;54.302;10.124;2022-10-03T00:28:40;101931.06;;;10.32;100.00
18652;BME280;9455;54.302;10.124;2022-10-03T00:31:12;101928.50;;;10.30;100.00
18652;BME280;9455;54.302;10.124;2022-10-03T00:33:53;101938.97;;;10.33;100.00
18652;BME280;9455;54.302;10.124;2022-10-03T00:36:33;101930.00;;;10.34;100.00
18652;BME280;9455;54.302;10.124;2022-10-03T00:39:30;101934.81;;;10.29;100.00
18652;BME280;9455;54.302;10.124;2022-10-03T00:45:36;101940.91;;;10.31;100.00
18652;BME280;9455;54.302;10.124;2022-10-03T00:48:47;101937.28;;;10.32;100.00
18652;BME280;9455;54.302;10.124;2022-10-03T00:51:31;101953.69;;;10.26;100.00
18652;BME280;9455;54.302;10.124;2022-10-03T00:54:14;101939.38;;;10.27;100.00
18652;BME280;9455;54.302;10.124;2022-10-03T00:57:02;101943.69;;;10.30;100.00
18652;BME280;9455;54.302;10.124;2022-10-03T00:59:47;101944.72;;;10.27;100.00
18652;BME280;9455;54.302;10.124;2022-10-03T01:02:33;101944.19;;;10.22;100.00
18652;BME280;9455;54.302;10.124;2022-10-03T01:05:15;101946.19;;;10.19;100.00
18652;BME280;9455;54.302;10.124;2022-10-03T01:08:00;101957.72;;;10.19;100.00
18652;BME280;9455;54.302;10.124;2022-10-03T01:10:33;101954.31;;;10.17;100.00
18652;BME280;9455;54.302;10.124;2022-10-03T01:13:18;101954.06;;;10.20;100.00
18652;BME280;9455;54.302;10.124;2022-10-03T01:15:55;101958.78;;;10.17;100.00
18652;BME280;9455;54.302;10.124;2022-10-03T01:18:37;101960.88;;;10.12;100.00
18652;BME280;9455;54.302;10.124;2022-10-03T01:21:13;101960.66;;;10.15;100.00
18652;BME280;9455;54.302;10.124;2022-10-03T01:26:53;101967.16;;;10.11;100.00
18652;BME280;9455;54.302;10.124;2022-10-03T01:29:29;101972.28;;;10.14;100.00
18652;BME280;9455;54.302;10.124;2022-10-03T01:32:21;101976.84;;;10.12;100.00
18652;BME280;9455;54.302;10.124;2022-10-03T01:34:55;101974.44;;;10.09;100.00
18652;BME280;9455;54.302;10.124;2022-10-03T01:37:30;101979.22;;;10.16;100.00
18652;BME280;9455;54.302;10.124;2022-10-03T01:40:04;101980.94;;;10.03;100.00
18652;BME280;9455;54.302;10.124;2022-10-03T01:42:38;101980.69;;;10.08;100.00
18652;BME280;9455;54.302;10.124;2022-10-03T01:45:22;101986.03;;;10.08;100.00
18652;BME280;9455;54.302;10.124;2022-10-03T01:47:54;101989.34;;;10.11;100.00
18652;BME280;9455;54.302;10.124;2022-10-03T01:50:27;101986.03;;;10.08;100.00
18652;BME280;9455;54.302;10.124;2022-10-03T01:53:03;101989.66;;;10.07;100.00
18652;BME280;9455;54.302;10.124;2022-10-03T01:55:42;101993.91;;;10.09;100.00
18652;BME280;9455;54.302;10.124;2022-10-03T01:58:11;101997.72;;;10.05;100.00
18652;BME280;9455;54.302;10.124;2022-10-03T02:00:49;102004.56;;;10.09;100.00
18652;BME280;9455;54.302;10.124;2022-10-03T02:03:22;102009.25;;;10.06;100.00
18652;BME280;9455;54.302;10.124;2022-10-03T02:05:56;102004.66;;;10.08;100.00
18652;BME280;9455;54.302;10.124;2022-10-03T02:08:34;102008.38;;;10.05;100.00
18652;BME280;9455;54.302;10.124;2022-10-03T02:11:10;102007.81;;;10.00;100.00
18652;BME280;9455;54.302;10.124;2022-10-03T02:13:49;102004.78;;;10.06;100.00
18652;BME280;9455;54.302;10.124;2022-10-03T02:16:37;102014.09;;;9.99;100.00
18652;BME280;9455;54.302;10.124;2022-10-03T02:19:14;102017.47;;;9.89;100.00
18652;BME280;9455;54.302;10.124;2022-10-03T02:21:47;102020.97;;;9.89;100.00
18652;BME280;9455;54.302;10.124;2022-10-03T02:24:25;102024.41;;;9.91;100.00
18652;BME280;9455;54.302;10.124;2022-10-03T02:27:35;102027.06;;;9.91;100.00
18652;BME280;9455;54.302;10.124;2022-10-03T02:30:13;102029.34;;;9.97;100.00
18652;BME280;9455;54.302;10.124;2022-10-03T02:36:18;102036.19;;;9.87;100.00
18652;BME280;9455;54.302;10.124;2022-10-03T02:44:54;102047.22;;;9.95;100.00
18652;BME280;9455;54.302;10.124;2022-10-03T02:48:04;102051.41;;;9.99;100.00
18652;BME280;9455;54.302;10.124;2022-10-03T02:51:01;102047.31;;;9.94;100.00
18652;BME280;9455;54.302;10.124;2022-10-03T02:54:00;102052.00;;;9.90;100.00
18652;BME280;9455;54.302;10.124;2022-10-03T02:56:59;102052.75;;;9.92;100.00
18652;BME280;9455;54.302;10.124;2022-10-03T02:59:46;102065.69;;;9.84;100.00
18652;BME280;9455;54.302;10.124;2022-10-03T03:08:59;102073.88;;;9.81;100.00
18652;BME280;9455;54.302;10.124;2022-10-03T03:17:47;102065.78;;;9.83;100.00
18652;BME280;9455;54.302;10.124;2022-10-03T03:20:35;102071.22;;;9.81;100.00
18652;BME280;9455;54.302;10.124;2022-10-03T03:23:17;102069.16;;;9.72;100.00
18652;BME280;9455;54.302;10.124;2022-10-03T03:26:14;102073.53;;;9.73;100.00
18652;BME280;9455;54.302;10.124;2022-10-03T03:28:52;102068.47;;;9.69;100.00
18652;BME280;9455;54.302;10.124;2022-10-03T03:31:26;102066.59;;;9.71;100.00
18652;BME280;9455;54.302;10.124;2022-10-03T03:34:02;102070.75;;;9.75;100.00
18652;BME280;9455;54.302;10.124;2022-10-03T03:36:35;102073.53;;;9.73;100.00
18652;BME280;9455;54.302;10.124;2022-10-03T03:39:16;102081.69;;;9.70;100.00
18652;BME280;9455;54.302;10.124;2022-10-03T03:42:06;102076.38;;;9.70;100.00
18652;BME280;9455;54.302;10.124;2022-10-03T03:44:59;102079.78;;;9.58;100.00
18652;BME280;9455;54.302;10.124;2022-10-03T03:47:44;102078.66;;;9.62;100.00
18652;BME280;9455;54.302;10.124;2022-10-03T03:50:33;102087.75;;;9.58;100.00
18652;BME280;9455;54.302;10.124;2022-10-03T03:53:39;102079.03;;;9.70;100.00
18652;BME280;9455;54.302;10.124;2022-10-03T03:56:32;102087.22;;;9.67;100.00
18652;BME280;9455;54.302;10.124;2022-10-03T03:59:16;102085.31;;;9.69;100.00
18652;BME280;9455;54.302;10.124;2022-10-03T04:02:06;102086.25;;;9.54;100.00
18652;BME280;9455;54.302;10.124;2022-10-03T04:04:45;102084.19;;;9.59;100.00
18652;BME280;9455;54.302;10.124;2022-10-03T04:07:29;102095.09;;;9.55;100.00
18652;BME280;9455;54.302;10.124;2022-10-03T04:10:11;102088.16;;;9.38;100.00
18652;BME280;9455;54.302;10.124;2022-10-03T04:13:01;102093.88;;;9.46;100.00
18652;BME280;9455;54.302;10.124;2022-10-03T04:15:50;102087.56;;;9.47;100.00
18652;BME280;9455;54.302;10.124;2022-10-03T04:18:30;102085.88;;;9.32;100.00
18652;BME280;9455;54.302;10.124;2022-10-03T04:21:29;102090.50;;;9.29;100.00
18652;BME280;9455;54.302;10.124;2022-10-03T04:24:14;102095.56;;;9.47;100.00
18652;BME280;9455;54.302;10.124;2022-10-03T04:26:56;102088.06;;;9.54;100.00
18652;BME280;9455;54.302;10.124;2022-10-03T04:29:45;102095.09;;;9.55;100.00
18652;BME280;9455;54.302;10.124;2022-10-03T04:32:25;102088.16;;;9.52;100.00
18652;BME280;9455;54.302;10.124;2022-10-03T04:35:21;102087.03;;;9.56;100.00
18652;BME280;9455;54.302;10.124;2022-10-03T04:38:03;102093.50;;;9.52;100.00
18652;BME280;9455;54.302;10.124;2022-10-03T04:40:42;102102.53;;;9.50;100.00
18652;BME280;9455;54.302;10.124;2022-10-03T04:43:14;102094.31;;;9.53;100.00
18652;BME280;9455;54.302;10.124;2022-10-03T04:46:09;102093.69;;;9.49;100.00
18652;BME280;9455;54.302;10.124;2022-10-03T04:48:44;102104.53;;;9.60;100.00
18652;BME280;9455;54.302;10.124;2022-10-03T04:51:21;102100.16;;;9.59;100.00
18652;BME280;9455;54.302;10.124;2022-10-03T04:53:54;102101.00;;;9.60;100.00
18652;BME280;9455;54.302;10.124;2022-10-03T04:56:37;102099.88;;;9.64;100.00
18652;BME280;9455;54.302;10.124;2022-10-03T04:59:20;102095.47;;;9.63;100.00
18652;BME280;9455;54.302;10.124;2022-10-03T05:01:53;102093.88;;;9.60;100.00
18652;BME280;9455;54.302;10.124;2022-10-03T05:04:28;102098.06;;;9.64;100.00
18652;BME280;9455;54.302;10.124;2022-10-03T05:07:03;102094.47;;;9.65;100.00
18652;BME280;9455;54.302;10.124;2022-10-03T05:09:38;102104.44;;;9.62;100.00
18652;BME280;9455;54.302;10.124;2022-10-03T05:12:11;102104.34;;;9.63;100.00
18652;BME280;9455;54.302;10.124;2022-10-03T05:14:50;102101.50;;;9.66;100.00
18652;BME280;9455;54.302;10.124;2022-10-03T05:17:28;102104.72;;;9.71;100.00
18652;BME280;9455;54.302;10.124;2022-10-03T05:20:25;102096.63;;;9.73;100.00
18652;BME280;9455;54.302;10.124;2022-10-03T05:23:04;102104.91;;;9.68;100.00
18652;BME280;9455;54.302;10.124;2022-10-03T05:25:43;102115.09;;;9.62;100.00
18652;BME280;9455;54.302;10.124;2022-10-03T05:28:18;102108.34;;;9.70;100.00
18652;BME280;9455;54.302;10.124;2022-10-03T05:30:54;102112.69;;;9.71;100.00
18652;BME280;9455;54.302;10.124;2022-10-03T05:33:36;102120.69;;;9.71;100.00
18652;BME280;9455;54.302;10.124;2022-10-03T05:36:10;102119.00;;;9.70;100.00
18652;BME280;9455;54.302;10.124;2022-10-03T05:41:50;102123.16;;;9.74;100.00
18652;BME280;9455;54.302;10.124;2022-10-03T05:44:25;102120.22;;;9.79;100.00
18652;BME280;9455;54.302;10.124;2022-10-03T05:46:58;102125.56;;;9.93;100.00
18652;BME280;9455;54.302;10.124;2022-10-03T05:49:54;102124.13;;;10.01;100.00
18652;BME280;9455;54.302;10.124;2022-10-03T05:52:46;102129.44;;;10.01;100.00
18652;BME280;9455;54.302;10.124;2022-10-03T05:55:28;102127.75;;;10.00;100.00
18652;BME280;9455;54.302;10.124;2022-10-03T06:01:46;102124.75;;;10.05;100.00
18652;BME280;9455;54.302;10.124;2022-10-03T06:04:29;102131.16;;;10.02;100.00
18652;BME280;9455;54.302;10.124;2022-10-03T06:07:13;102132.69;;;10.06;100.00
18652;BME280;9455;54.302;10.124;2022-10-03T06:10:12;102137.84;;;10.09;100.00
18652;BME280;9455;54.302;10.124;2022-10-03T06:12:48;102139.34;;;10.13;100.00
18652;BME280;9455;54.302;10.124;2022-10-03T06:15:31;102144.31;;;10.19;100.00
18652;BME280;9455;54.302;10.124;2022-10-03T06:18:17;102149.06;;;10.28;100.00
18652;BME280;9455;54.302;10.124;2022-10-03T06:24:33;102156.56;;;10.36;100.00
18652;BME280;9455;54.302;10.124;2022-10-03T06:30:22;102163.00;;;10.46;100.00
18652;BME280;9455;54.302;10.124;2022-10-03T06:33:15;102165.69;;;10.46;100.00
18652;BME280;9455;54.302;10.124;2022-10-03T06:36:20;102161.75;;;10.51;100.00
18652;BME280;9455;54.302;10.124;2022-10-03T06:39:22;102174.63;;;10.59;100.00
18652;BME280;9455;54.302;10.124;2022-10-03T06:48:10;102188.59;;;10.76;100.00
18652;BME280;9455;54.302;10.124;2022-10-03T06:50:52;102188.16;;;10.82;100.00
18652;BME280;9455;54.302;10.124;2022-10-03T06:53:47;102184.13;;;10.89;100.00
18652;BME280;9455;54.302;10.124;2022-10-03T06:56:44;102185.69;;;10.93;100.00
18652;BME280;9455;54.302;10.124;2022-10-03T06:59:36;102183.16;;;11.04;100.00
18652;BME280;9455;54.302;10.124;2022-10-03T07:02:36;102190.72;;;11.10;100.00
18652;BME280;9455;54.302;10.124;2022-10-03T07:08:44;102185.31;;;11.24;100.00
18652;BME280;9455;54.302;10.124;2022-10-03T07:11:32;102183.22;;;11.30;100.00
18652;BME280;9455;54.302;10.124;2022-10-03T07:14:37;102191.56;;;11.38;100.00
18652;BME280;9455;54.302;10.124;2022-10-03T07:17:20;102194.59;;;11.46;100.00
18652;BME280;9455;54.302;10.124;2022-10-03T07:20:09;102194.34;;;11.49;100.00
18652;BME280;9455;54.302;10.124;2022-10-03T07:26:27;102199.31;;;11.67;100.00
18652;BME280;9455;54.302;10.124;2022-10-03T07:29:08;102207.78;;;11.74;100.00
18652;BME280;9455;54.302;10.124;2022-10-03T07:31:49;102203.94;;;11.78;100.00
18652;BME280;9455;54.302;10.124;2022-10-03T07:34:46;102211.09;;;11.90;100.00
18652;BME280;9455;54.302;10.124;2022-10-03T07:37:26;102209.19;;;11.92;100.00
18652;BME280;9455;54.302;10.124;2022-10-03T07:40:31;102212.84;;;12.03;100.00
18652;BME280;9455;54.302;10.124;2022-10-03T07:43:41;102221.78;;;12.02;100.00
18652;BME280;9455;54.302;10.124;2022-10-03T07:49:35;102214.81;;;12.25;100.00
18652;BME280;9455;54.302;10.124;2022-10-03T07:52:38;102227.56;;;12.21;100.00
18652;BME280;9455;54.302;10.124;2022-10-03T07:55:23;102228.00;;;12.28;100.00
18652;BME280;9455;54.302;10.124;2022-10-03T07:58:23;102229.16;;;12.36;100.00
18652;BME280;9455;54.302;10.124;2022-10-03T08:01:07;102221.69;;;12.41;100.00
18652;BME280;9455;54.302;10.124;2022-10-03T08:06:59;102233.03;;;12.68;100.00
18652;BME280;9455;54.302;10.124;2022-10-03T08:09:54;102232.69;;;12.85;100.00
18652;BME280;9455;54.302;10.124;2022-10-03T08:15:29;102255.00;;;13.09;98.65
18652;BME280;9455;54.302;10.124;2022-10-03T08:18:23;102256.28;;;13.16;97.49
18652;BME280;9455;54.302;10.124;2022-10-03T08:20:56;102249.84;;;13.19;95.93
18652;BME280;9455;54.302;10.124;2022-10-03T08:23:55;102251.72;;;13.29;96.12
18652;BME280;9455;54.302;10.124;2022-10-03T08:26:40;102250.84;;;13.29;95.12
18652;BME280;9455;54.302;10.124;2022-10-03T08:29:22;102247.72;;;13.35;95.35
18652;BME280;9455;54.302;10.124;2022-10-03T08:32:25;102249.72;;;13.44;95.89
18652;BME280;9455;54.302;10.124;2022-10-03T08:35:24;102260.00;;;13.50;95.08
18652;BME280;9455;54.302;10.124;2022-10-03T08:44:34;102259.22;;;13.82;93.85
18652;BME280;9455;54.302;10.124;2022-10-03T08:50:42;102249.72;;;13.78;92.91
18652;BME280;9455;54.302;10.124;2022-10-03T08:56:20;102261.84;;;13.95;93.23
18652;BME280;9455;54.302;10.124;2022-10-03T09:02:14;102254.97;;;13.91;91.46
18652;BME280;9455;54.302;10.124;2022-10-03T09:05:08;102262.53;;;13.86;92.02
18652;BME280;9455;54.302;10.124;2022-10-03T09:11:10;102269.03;;;14.06;91.43
18652;BME280;9455;54.302;10.124;2022-10-03T09:20:20;102266.06;;;14.32;88.60
18652;BME280;9455;54.302;10.124;2022-10-03T09:23:06;102265.59;;;14.38;88.85
18652;BME280;9455;54.302;10.124;2022-10-03T09:26:01;102277.03;;;14.29;86.99
18652;BME280;9455;54.302;10.124;2022-10-03T09:28:55;102269.00;;;14.40;85.90
18652;BME280;9455;54.302;10.124;2022-10-03T09:31:52;102263.25;;;14.45;86.22
18652;BME280;9455;54.302;10.124;2022-10-03T09:34:49;102275.84;;;14.55;86.17
18652;BME280;9455;54.302;10.124;2022-10-03T09:37:38;102253.38;;;14.56;83.28
18652;BME280;9455;54.302;10.124;2022-10-03T09:40:47;102273.25;;;14.65;81.88
18652;BME280;9455;54.302;10.124;2022-10-03T09:43:56;102273.63;;;14.82;80.99
18652;BME280;9455;54.302;10.124;2022-10-03T09:46:55;102283.25;;;14.96;79.48
18652;BME280;9455;54.302;10.124;2022-10-03T09:52:46;102272.72;;;15.15;78.52
18652;BME280;9455;54.302;10.124;2022-10-03T09:55:36;102265.63;;;15.14;78.23
18652;BME280;9455;54.302;10.124;2022-10-03T09:58:30;102285.88;;;15.18;76.44
18652;BME280;9455;54.302;10.124;2022-10-03T10:01:15;102282.13;;;15.20;76.99
18652;BME280;9455;54.302;10.124;2022-10-03T10:10:20;102278.06;;;15.37;76.82
18652;BME280;9455;54.302;10.124;2022-10-03T10:13:16;102268.63;;;15.42;75.44
18652;BME280;9455;54.302;10.124;2022-10-03T10:16:03;102277.06;;;15.38;74.97
18652;BME280;9455;54.302;10.124;2022-10-03T10:22:02;102273.25;;;15.40;74.32
18652;BME280;9455;54.302;10.124;2022-10-03T10:25:05;102275.00;;;15.41;75.38
18652;BME280;9455;54.302;10.124;2022-10-03T10:27:57;102273.75;;;15.34;73.63
18652;BME280;9455;54.302;10.124;2022-10-03T10:40:21;102264.25;;;15.19;76.25
18652;BME280;9455;54.302;10.124;2022-10-03T10:43:19;102266.00;;;15.20;75.72
18652;BME280;9455;54.302;10.124;2022-10-03T10:46:23;102261.44;;;15.21;75.92
18652;BME280;9455;54.302;10.124;2022-10-03T10:49:35;102265.69;;;15.34;76.00
18652;BME280;9455;54.302;10.124;2022-10-03T10:59:00;102244.69;;;15.28;77.26
18652;BME280;9455;54.302;10.124;2022-10-03T11:02:15;102249.03;;;15.51;76.55
18652;BME280;9455;54.302;10.124;2022-10-03T11:08:25;102246.31;;;15.62;75.60
18652;BME280;9455;54.302;10.124;2022-10-03T11:11:39;102246.69;;;15.78;75.96
18652;BME280;9455;54.302;10.124;2022-10-03T11:14:36;102248.66;;;15.97;75.02
18652;BME280;9455;54.302;10.124;2022-10-03T11:17:38;102248.53;;;16.19;75.34
18652;BME280;9455;54.302;10.124;2022-10-03T11:20:30;102251.78;;;16.22;74.17
18652;BME280;9455;54.302;10.124;2022-10-03T11:23:22;102256.00;;;16.15;74.22
18652;BME280;9455;54.302;10.124;2022-10-03T11:26:37;102257.84;;;15.94;73.24
18652;BME280;9455;54.302;10.124;2022-10-03T11:35:57;102250.50;;;15.96;75.53
18652;BME280;9455;54.302;10.124;2022-10-03T11:38:31;102242.31;;;15.98;75.82
18652;BME280;9455;54.302;10.124;2022-10-03T11:41:07;102232.47;;;15.87;75.59
18652;BME280;9455;54.302;10.124;2022-10-03T11:44:04;102240.44;;;15.98;75.44
18652;BME280;9455;54.302;10.124;2022-10-03T11:46:46;102242.38;;;16.07;76.47
18652;BME280;9455;54.302;10.124;2022-10-03T11:49:28;102243.50;;;16.05;76.17
18652;BME280;9455;54.302;10.124;2022-10-03T11:52:05;102234.28;;;16.07;77.63
18652;BME280;9455;54.302;10.124;2022-10-03T11:54:37;102239.16;;;16.13;76.34
18652;BME280;9455;54.302;10.124;2022-10-03T11:57:07;102242.16;;;16.20;77.31
18652;BME280;9455;54.302;10.124;2022-10-03T12:00:00;102238.19;;;16.24;76.58
18652;BME280;9455;54.302;10.124;2022-10-03T12:02:48;102239.09;;;16.34;76.34
18652;BME280;9455;54.302;10.124;2022-10-03T12:05:25;102245.91;;;16.38;75.62
18652;BME280;9455;54.302;10.124;2022-10-03T12:08:06;102247.00;;;16.26;73.94
18652;BME280;9455;54.302;10.124;2022-10-03T12:11:03;102245.84;;;16.19;74.53
18652;BME280;9455;54.302;10.124;2022-10-03T12:13:57;102261.78;;;16.31;74.17
18652;BME280;9455;54.302;10.124;2022-10-03T12:16:32;102251.53;;;16.25;73.88
18652;BME280;9455;54.302;10.124;2022-10-03T12:19:16;102262.34;;;16.35;73.27
18652;BME280;9455;54.302;10.124;2022-10-03T12:21:53;102254.06;;;16.48;73.32
18652;BME280;9455;54.302;10.124;2022-10-03T12:24:25;102246.84;;;16.48;72.22
18652;BME280;9455;54.302;10.124;2022-10-03T12:26:59;102255.31;;;16.43;72.15
18652;BME280;9455;54.302;10.124;2022-10-03T12:29:31;102251.44;;;16.57;73.44
18652;BME280;9455;54.302;10.124;2022-10-03T12:32:16;102251.00;;;16.62;72.43
18652;BME280;9455;54.302;10.124;2022-10-03T12:35:02;102277.38;;;16.37;73.03
18652;BME280;9455;54.302;10.124;2022-10-03T12:37:47;102246.25;;;16.44;73.02
18652;BME280;9455;54.302;10.124;2022-10-03T12:40:22;102254.25;;;16.56;73.67
18652;BME280;9455;54.302;10.124;2022-10-03T12:43:01;102255.84;;;16.68;71.93
18652;BME280;9455;54.302;10.124;2022-10-03T12:45:34;102261.50;;;17.04;71.99
18652;BME280;9455;54.302;10.124;2022-10-03T12:48:16;102252.13;;;16.99;71.37
18652;BME280;9455;54.302;10.124;2022-10-03T12:50:53;102244.50;;;17.04;72.63
18652;BME280;9455;54.302;10.124;2022-10-03T12:53:30;102264.31;;;17.03;73.09
18652;BME280;9455;54.302;10.124;2022-10-03T12:56:15;102273.06;;;16.86;73.51
18652;BME280;9455;54.302;10.124;2022-10-03T12:58:56;102273.28;;;16.64;73.64
18652;BME280;9455;54.302;10.124;2022-10-03T13:01:37;102262.28;;;16.76;73.54
18652;BME280;9455;54.302;10.124;2022-10-03T13:04:20;102261.38;;;16.66;73.88
18652;BME280;9455;54.302;10.124;2022-10-03T13:07:14;102263.31;;;16.55;74.21
18652;BME280;9455;54.302;10.124;2022-10-03T13:10:00;102255.53;;;16.52;74.70
18652;BME280;9455;54.302;10.124;2022-10-03T13:12:35;102259.50;;;16.36;74.82
18652;BME280;9455;54.302;10.124;2022-10-03T13:24:33;102251.16;;;16.39;72.46
18652;BME280;9455;54.302;10.124;2022-10-03T13:27:33;102251.97;;;16.30;73.09
18652;BME280;9455;54.302;10.124;2022-10-03T13:30:16;102251.25;;;16.28;74.32
18652;BME280;9455;54.302;10.124;2022-10-03T13:32:49;102247.84;;;16.26;73.54
18652;BME280;9455;54.302;10.124;2022-10-03T13:35:25;102254.66;;;16.30;73.62
18652;BME280;9455;54.302;10.124;2022-10-03T13:38:30;102259.72;;;16.24;73.50
18652;BME280;9455;54.302;10.124;2022-10-03T13:41:10;102251.81;;;16.43;73.81
18652;BME280;9455;54.302;10.124;2022-10-03T13:43:43;102264.03;;;16.57;73.72
18652;BME280;9455;54.302;10.124;2022-10-03T13:46:20;102257.22;;;16.53;73.17
18652;BME280;9455;54.302;10.124;2022-10-03T13:48:56;102262.50;;;16.64;73.24
18652;BME280;9455;54.302;10.124;2022-10-03T13:51:38;102247.50;;;16.71;71.90
18652;BME280;9455;54.302;10.124;2022-10-03T13:54:15;102251.78;;;16.83;71.92
18652;BME280;9455;54.302;10.124;2022-10-03T13:56:53;102255.81;;;16.98;72.22
18652;BME280;9455;54.302;10.124;2022-10-03T13:59:40;102251.56;;;17.05;70.41
18652;BME280;9455;54.302;10.124;2022-10-03T14:05:49;102245.97;;;16.78;70.14
18652;BME280;9455;54.302;10.124;2022-10-03T14:08:45;102253.44;;;16.65;70.74
18652;BME280;9455;54.302;10.124;2022-10-03T14:11:41;102258.22;;;16.52;71.26
18652;BME280;9455;54.302;10.124;2022-10-03T14:14:27;102249.69;;;16.47;71.43
18652;BME280;9455;54.302;10.124;2022-10-03T14:17:04;102239.84;;;16.36;72.08
18652;BME280;9455;54.302;10.124;2022-10-03T14:19:40;102249.56;;;16.27;72.53
18652;BME280;9455;54.302;10.124;2022-10-03T14:22:35;102249.84;;;16.24;73.24
18652;BME280;9455;54.302;10.124;2022-10-03T14:25:20;102245.50;;;16.12;73.86
18652;BME280;9455;54.302;10.124;2022-10-03T14:27:53;102241.53;;;16.16;74.65
18652;BME280;9455;54.302;10.124;2022-10-03T14:30:22;102241.53;;;16.16;75.38
18652;BME280;9455;54.302;10.124;2022-10-03T14:33:01;102259.22;;;16.09;74.06
18652;BME280;9455;54.302;10.124;2022-10-03T14:35:38;102256.81;;;16.06;74.60
18652;BME280;9455;54.302;10.124;2022-10-03T14:41:28;102248.28;;;16.01;75.67
18652;BME280;9455;54.302;10.124;2022-10-03T14:44:03;102240.59;;;15.97;75.82
18652;BME280;9455;54.302;10.124;2022-10-03T14:46:35;102243.41;;;15.95;76.63
18652;BME280;9455;54.302;10.124;2022-10-03T14:49:05;102248.34;;;15.90;76.07
18652;BME280;9455;54.302;10.124;2022-10-03T14:51:37;102239.66;;;15.87;76.19
18652;BME280;9455;54.302;10.124;2022-10-03T14:54:16;102248.91;;;15.94;75.62
18652;BME280;9455;54.302;10.124;2022-10-03T14:56:45;102237.44;;;15.92;75.41
18652;BME280;9455;54.302;10.124;2022-10-03T14:59:18;102239.75;;;15.96;75.35
18652;BME280;9455;54.302;10.124;2022-10-03T15:01:50;102232.06;;;15.92;74.70
18652;BME280;9455;54.302;10.124;2022-10-03T15:04:26;102229.69;;;15.98;75.39
18652;BME280;9455;54.302;10.124;2022-10-03T15:06:55;102236.38;;;16.04;75.45
18652;BME280;9455;54.302;10.124;2022-10-03T15:09:27;102238.25;;;16.03;75.70
18652;BME280;9455;54.302;10.124;2022-10-03T15:12:02;102245.66;;;15.90;75.38
18652;BME280;9455;54.302;10.124;2022-10-03T15:14:33;102241.13;;;15.91;75.44
18652;BME280;9455;54.302;10.124;2022-10-03T15:17:04;102231.72;;;15.85;76.16
18652;BME280;9455;54.302;10.124;2022-10-03T15:19:35;102237.91;;;15.76;76.15
18652;BME280;9455;54.302;10.124;2022-10-03T15:22:11;102240.78;;;15.64;76.83
18652;BME280;9455;54.302;10.124;2022-10-03T15:24:42;102228.06;;;15.66;77.52
18652;BME280;9455;54.302;10.124;2022-10-03T15:27:14;102237.75;;;15.57;76.92
18652;BME280;9455;54.302;10.124;2022-10-03T15:29:49;102233.38;;;15.56;77.13
18652;BME280;9455;54.302;10.124;2022-10-03T15:32:20;102228.72;;;15.58;77.70
18652;BME280;9455;54.302;10.124;2022-10-03T15:34:51;102227.97;;;15.56;78.53
18652;BME280;9455;54.302;10.124;2022-10-03T15:37:20;102228.13;;;15.55;78.75
18652;BME280;9455;54.302;10.124;2022-10-03T15:39:49;102237.69;;;15.48;80.04
18652;BME280;9455;54.302;10.124;2022-10-03T15:42:22;102235.00;;;15.48;80.56
18652;BME280;9455;54.302;10.124;2022-10-03T15:44:52;102230.97;;;15.42;81.58
18652;BME280;9455;54.302;10.124;2022-10-03T15:47:22;102228.28;;;15.42;81.44
18652;BME280;9455;54.302;10.124;2022-10-03T15:49:52;102230.00;;;15.43;82.56
18652;BME280;9455;54.302;10.124;2022-10-03T15:52:25;102231.97;;;15.41;82.54
18652;BME280;9455;54.302;10.124;2022-10-03T15:54:59;102226.84;;;15.38;82.85
18652;BME280;9455;54.302;10.124;2022-10-03T15:57:29;102220.97;;;15.33;83.22
18652;BME280;9455;54.302;10.124;2022-10-03T15:59:58;102227.13;;;15.24;83.93
18652;BME280;9455;54.302;10.124;2022-10-03T16:02:30;102223.72;;;15.11;85.44
18652;BME280;9455;54.302;10.124;2022-10-03T16:04:59;102235.47;;;15.10;85.08
18652;BME280;9455;54.302;10.124;2022-10-03T16:07:34;102229.84;;;15.02;85.64
18652;BME280;9455;54.302;10.124;2022-10-03T16:10:19;102237.56;;;14.96;85.30
18652;BME280;9455;54.302;10.124;2022-10-03T16:12:55;102232.81;;;14.88;85.06
18652;BME280;9455;54.302;10.124;2022-10-03T16:15:28;102222.84;;;14.79;84.07
18652;BME280;9455;54.302;10.124;2022-10-03T16:18:04;102225.03;;;14.74;84.31
18652;BME280;9455;54.302;10.124;2022-10-03T16:20:36;102222.38;;;14.63;84.86
18652;BME280;9455;54.302;10.124;2022-10-03T16:23:10;102229.97;;;14.58;85.06
18652;BME280;9455;54.302;10.124;2022-10-03T16:25:45;102218.72;;;14.53;85.56
18652;BME280;9455;54.302;10.124;2022-10-03T16:28:16;102228.47;;;14.43;86.14
18652;BME280;9455;54.302;10.124;2022-10-03T16:30:51;102226.53;;;14.34;86.91
18652;BME280;9455;54.302;10.124;2022-10-03T16:33:22;102234.09;;;14.29;87.48
18652;BME280;9455;54.302;10.124;2022-10-03T16:35:52;102229.94;;;14.25;88.32